createdAt,value
2023-04-07T00:00:50.461Z,15.60
2023-04-07T00:03:24.874Z,12.70
2023-04-07T00:05:53.873Z,14.50
2023-04-07T00:08:22.213Z,18.00
2023-04-07T00:10:50.561Z,11.50
2023-04-07T00:13:21.070Z,16.60
2023-04-07T00:15:49.747Z,12.50
2023-04-07T00:18:25.061Z,13.00
2023-04-07T00:20:53.682Z,14.70
2023-04-07T00:23:22.174Z,12.70
2023-04-07T00:25:50.531Z,15.90
2023-04-07T00:28:19.129Z,12.40
2023-04-07T00:30:52.258Z,15.00
2023-04-07T00:33:21.015Z,14.40
2023-04-07T00:35:50.117Z,17.30
2023-04-07T00:38:19.011Z,14.10
2023-04-07T00:40:47.536Z,13.30
2023-04-07T00:43:15.841Z,12.40
2023-04-07T00:45:45.051Z,15.30
2023-04-07T00:48:13.404Z,17.90
2023-04-07T00:50:42.357Z,14.20
2023-04-07T00:53:12.051Z,16.10
2023-04-07T00:55:40.674Z,15.70
2023-04-07T00:58:09.714Z,19.10
2023-04-07T01:00:52.289Z,16.50
2023-04-07T01:03:34.051Z,13.90
2023-04-07T01:06:07.205Z,15.50
2023-04-07T01:08:35.774Z,18.60
2023-04-07T01:11:24.854Z,15.30
2023-04-07T01:13:55.363Z,14.10
2023-04-07T01:16:50.835Z,19.50
2023-04-07T01:19:38.456Z,16.20
2023-04-07T01:22:14.228Z,19.80
2023-04-07T01:24:51.466Z,15.20
2023-04-07T01:27:41.784Z,13.10
2023-04-07T01:30:13.031Z,15.60
2023-04-07T01:32:56.675Z,17.00
2023-04-07T01:35:27.213Z,18.20
2023-04-07T01:37:56.574Z,21.70
2023-04-07T01:40:25.893Z,17.70
2023-04-07T01:42:57.939Z,15.20
2023-04-07T01:45:27.703Z,17.50
2023-04-07T01:47:56.845Z,17.20
2023-04-07T01:50:26.431Z,18.40
2023-04-07T01:52:55.609Z,18.30
2023-04-07T01:55:25.184Z,19.20
2023-04-07T01:58:07.332Z,22.20
2023-04-07T02:00:37.592Z,15.00
2023-04-07T02:03:23.485Z,20.60
2023-04-07T02:05:56.656Z,19.20
2023-04-07T02:08:31.173Z,20.90
2023-04-07T02:11:03.925Z,17.90
2023-04-07T02:13:37.815Z,16.00
2023-04-07T02:16:08.232Z,16.80
2023-04-07T02:18:38.786Z,18.80
2023-04-07T02:21:09.399Z,17.20
2023-04-07T02:23:39.287Z,16.90
2023-04-07T02:26:08.227Z,26.40
2023-04-07T02:28:37.219Z,23.90
2023-04-07T02:31:06.343Z,27.70
2023-04-07T02:33:36.231Z,26.40
2023-04-07T02:36:04.595Z,27.90
2023-04-07T02:38:33.105Z,24.90
2023-04-07T02:41:01.471Z,25.20
2023-04-07T02:43:31.861Z,30.60
2023-04-07T02:46:00.336Z,26.30
2023-04-07T02:48:29.798Z,25.10
2023-04-07T02:50:59.125Z,29.30
2023-04-07T02:53:32.978Z,31.70
2023-04-07T02:56:01.398Z,30.10
2023-04-07T02:58:30.138Z,25.10
2023-04-07T03:00:58.462Z,23.30
2023-04-07T03:03:32.338Z,32.30
2023-04-07T03:06:22.673Z,28.40
2023-04-07T03:08:59.690Z,43.60
2023-04-07T03:11:28.939Z,49.00
2023-04-07T03:13:58.202Z,34.60
2023-04-07T03:16:41.166Z,30.00
2023-04-07T03:19:14.676Z,26.90
2023-04-07T03:21:48.760Z,24.20
2023-04-07T03:24:19.690Z,28.70
2023-04-07T03:26:48.446Z,25.00
2023-04-07T03:29:37.718Z,28.60
2023-04-07T03:32:08.106Z,27.40
2023-04-07T03:34:36.404Z,28.00
2023-04-07T03:37:05.488Z,25.90
2023-04-07T03:39:37.565Z,26.30
2023-04-07T03:42:13.304Z,33.00
2023-04-07T03:44:43.009Z,27.30
2023-04-07T03:47:11.562Z,25.20
2023-04-07T03:49:40.562Z,24.20
2023-04-07T03:52:09.199Z,25.10
2023-04-07T03:54:40.684Z,21.50
2023-04-07T03:57:09.949Z,25.80
2023-04-07T03:59:42.749Z,27.30
2023-04-07T04:02:11.800Z,31.80
2023-04-07T04:04:41.568Z,36.50
2023-04-07T04:07:10.572Z,35.80
2023-04-07T04:09:51.682Z,33.90
2023-04-07T04:12:20.241Z,40.70
2023-04-07T04:15:00.822Z,30.70
2023-04-07T04:17:29.750Z,35.30
2023-04-07T04:19:58.163Z,23.10
2023-04-07T04:22:33.675Z,23.00
2023-04-07T04:25:03.132Z,23.50
2023-04-07T04:27:35.951Z,18.20
2023-04-07T04:30:12.938Z,21.30
2023-04-07T04:32:47.874Z,20.30
2023-04-07T04:37:58.919Z,20.80
2023-04-07T04:40:28.101Z,18.80
2023-04-07T04:42:57.073Z,15.70
2023-04-07T04:45:26.400Z,16.40
2023-04-07T04:47:57.219Z,18.70
2023-04-07T04:50:25.839Z,15.60
2023-04-07T04:52:54.215Z,19.40
2023-04-07T04:55:25.699Z,24.70
2023-04-07T04:57:54.939Z,23.10
2023-04-07T05:00:36.856Z,34.80
2023-04-07T05:03:08.462Z,21.30
2023-04-07T05:05:39.672Z,19.30
2023-04-07T05:08:11.414Z,17.90
2023-04-07T05:10:41.018Z,15.60
2023-04-07T05:13:12.663Z,26.60
2023-04-07T05:15:43.492Z,18.20
2023-04-07T05:18:13.455Z,17.70
2023-04-07T05:20:44.645Z,18.20
2023-04-07T05:23:15.202Z,16.30
2023-04-07T05:25:44.974Z,17.40
2023-04-07T05:28:13.284Z,19.80
2023-04-07T05:30:41.755Z,19.10
2023-04-07T05:33:11.449Z,24.20
2023-04-07T05:35:47.473Z,30.40
2023-04-07T05:38:19.667Z,26.10
2023-04-07T05:40:48.544Z,26.60
2023-04-07T05:43:25.455Z,32.80
2023-04-07T05:45:53.993Z,30.20
2023-04-07T05:48:22.709Z,26.70
2023-04-07T05:50:51.461Z,25.90
2023-04-07T05:53:20.071Z,20.60
2023-04-07T05:55:50.204Z,22.40
2023-04-07T05:58:42.219Z,24.10
2023-04-07T06:01:12.089Z,24.70
2023-04-07T06:03:42.256Z,27.40
2023-04-07T06:06:16.658Z,27.40
2023-04-07T06:08:48.809Z,22.80
2023-04-07T06:11:17.800Z,27.60
2023-04-07T06:13:46.792Z,24.10
2023-04-07T06:16:18.334Z,21.10
2023-04-07T06:18:52.518Z,23.00
2023-04-07T06:21:20.882Z,24.40
2023-04-07T06:23:51.845Z,21.80
2023-04-07T06:26:21.841Z,23.70
2023-04-07T06:28:50.161Z,19.60
2023-04-07T06:31:21.335Z,24.00
2023-04-07T06:33:50.936Z,26.50
2023-04-07T06:36:21.929Z,24.00
2023-04-07T06:38:51.187Z,26.60
2023-04-07T06:41:19.396Z,24.50
2023-04-07T06:43:49.773Z,27.70
2023-04-07T06:46:19.041Z,22.10
2023-04-07T06:48:47.679Z,27.60
2023-04-07T06:51:16.393Z,27.70
2023-04-07T06:53:44.722Z,28.50
2023-04-07T06:56:13.110Z,21.80
2023-04-07T07:15:16.225Z,25.40
2023-04-07T07:17:45.112Z,20.30
2023-04-07T07:20:13.533Z,20.50
2023-04-07T07:22:42.104Z,25.20
2023-04-07T07:25:10.566Z,25.70
2023-04-07T07:27:38.916Z,23.40
2023-04-07T07:30:08.074Z,17.30
2023-04-07T07:32:50.453Z,22.10
2023-04-07T07:35:18.720Z,19.80
2023-04-07T07:37:47.736Z,16.80
2023-04-07T07:40:16.539Z,18.60
2023-04-07T07:42:46.716Z,15.00
2023-04-07T07:45:17.658Z,16.10
2023-04-07T07:47:46.200Z,15.40
2023-04-07T07:50:14.578Z,14.70
2023-04-07T07:52:43.623Z,13.80
2023-04-07T07:55:11.953Z,13.50
2023-04-07T07:57:41.529Z,11.20
2023-04-07T08:00:10.637Z,22.20
2023-04-07T08:03:00.792Z,20.70
2023-04-07T08:05:30.125Z,17.10
2023-04-07T08:07:58.768Z,17.10
2023-04-07T08:10:27.081Z,13.50
2023-04-07T08:12:58.765Z,13.80
2023-04-07T08:15:27.360Z,17.10
2023-04-07T08:17:56.630Z,13.00
2023-04-07T08:20:27.743Z,12.50
2023-04-07T08:22:56.415Z,18.00
2023-04-07T08:25:26.397Z,9.10
2023-04-07T08:27:56.729Z,16.20
2023-04-07T08:30:25.092Z,8.90
2023-04-07T08:33:08.804Z,11.90
2023-04-07T08:35:37.131Z,12.00
2023-04-07T08:38:06.365Z,12.20
2023-04-07T08:40:34.828Z,14.10
2023-04-07T08:43:09.550Z,16.20
2023-04-07T08:45:40.703Z,10.30
2023-04-07T08:48:18.967Z,12.80
2023-04-07T08:50:53.081Z,13.30
2023-04-07T08:53:32.282Z,18.00
2023-04-07T08:56:02.304Z,19.90
2023-04-07T08:58:31.540Z,10.00
2023-04-07T09:01:00.180Z,15.60
2023-04-07T09:03:32.943Z,8.60
2023-04-07T09:06:02.529Z,15.00
2023-04-07T09:08:31.397Z,18.50
2023-04-07T09:11:03.258Z,17.30
2023-04-07T09:13:32.045Z,13.80
2023-04-07T09:16:02.480Z,13.50
2023-04-07T09:21:05.024Z,13.20
2023-04-07T09:23:39.046Z,24.30
2023-04-07T09:26:23.063Z,14.20
2023-04-07T09:29:03.046Z,12.30
2023-04-07T09:31:52.999Z,17.50
2023-04-07T09:34:28.918Z,11.80
2023-04-07T09:36:58.715Z,11.90
2023-04-07T09:39:27.654Z,11.20
2023-04-07T09:41:55.972Z,7.10
2023-04-07T09:44:25.733Z,12.30
2023-04-07T09:46:59.347Z,8.10
2023-04-07T09:49:27.819Z,13.00
2023-04-07T09:52:08.472Z,16.20
2023-04-07T09:54:39.757Z,14.80
2023-04-07T09:57:10.844Z,17.60
2023-04-07T09:59:44.876Z,17.90
2023-04-07T10:02:13.313Z,17.80
2023-04-07T10:04:42.587Z,15.70
2023-04-07T10:07:11.339Z,18.50
2023-04-07T10:09:41.648Z,21.00
2023-04-07T10:12:11.397Z,14.80
2023-04-07T10:14:40.419Z,18.20
2023-04-07T10:17:08.937Z,15.40
2023-04-07T10:19:38.238Z,20.30
2023-04-07T10:22:07.491Z,10.70
2023-04-07T10:24:53.881Z,14.40
2023-04-07T10:27:33.306Z,17.90
2023-04-07T10:30:04.539Z,14.90
2023-04-07T10:32:54.527Z,14.30
2023-04-07T10:35:27.154Z,21.70
2023-04-07T10:38:08.954Z,16.30
2023-04-07T10:40:38.458Z,14.40
2023-04-07T10:43:09.815Z,17.40
2023-04-07T10:45:47.343Z,12.00
2023-04-07T10:48:18.731Z,25.30
2023-04-07T10:51:07.612Z,13.60
2023-04-07T10:53:38.574Z,12.50
2023-04-07T10:56:07.210Z,14.10
2023-04-07T10:58:36.080Z,6.90
2023-04-07T11:01:04.992Z,11.10
2023-04-07T11:03:42.242Z,16.70
2023-04-07T11:06:12.784Z,14.10
2023-04-07T11:40:34.425Z,30.10
2023-04-07T11:43:06.194Z,18.20
2023-04-07T11:45:36.170Z,25.30
2023-04-07T11:48:04.749Z,30.70
2023-04-07T11:50:42.821Z,27.10
2023-04-07T11:53:11.799Z,27.20
2023-04-07T11:55:40.273Z,19.40
2023-04-07T11:58:12.341Z,18.10
2023-04-07T12:01:06.938Z,21.10
2023-04-07T12:03:38.336Z,14.00
2023-04-07T12:06:08.649Z,24.90
2023-04-07T12:08:39.020Z,17.30
2023-04-07T12:11:09.447Z,25.00
2023-04-07T12:13:41.631Z,22.00
2023-04-07T12:16:10.609Z,24.80
2023-04-07T12:18:39.085Z,17.60
2023-04-07T12:21:10.627Z,19.70
2023-04-07T12:23:41.272Z,29.20
2023-04-07T12:26:12.053Z,24.60
2023-04-07T12:28:41.570Z,15.50
2023-04-07T12:31:10.405Z,19.20
2023-04-07T12:33:38.753Z,30.60
2023-04-07T12:36:07.928Z,22.10
2023-04-07T12:38:37.376Z,29.80
2023-04-07T12:41:05.725Z,28.90
2023-04-07T12:43:34.957Z,19.60
2023-04-07T12:46:06.209Z,26.20
2023-04-07T12:48:35.213Z,23.30
2023-04-07T12:51:03.785Z,32.00
2023-04-07T12:53:33.588Z,30.30
2023-04-07T12:56:01.913Z,28.60
2023-04-07T12:58:35.535Z,30.60
2023-04-07T13:01:04.266Z,27.30
2023-04-07T13:03:42.456Z,41.60
2023-04-07T13:06:11.997Z,33.20
2023-04-07T13:08:41.000Z,31.50
2023-04-07T13:11:09.417Z,30.90
2023-04-07T13:13:38.655Z,29.40
2023-04-07T13:16:07.425Z,17.20
2023-04-07T13:18:36.823Z,23.10
2023-04-07T13:21:40.654Z,55.50
2023-04-07T13:23:55.055Z,40.20
2023-04-07T13:26:24.299Z,20.80
2023-04-07T13:28:53.227Z,34.70
2023-04-07T13:31:22.294Z,32.60
2023-04-07T13:33:51.882Z,23.90
2023-04-07T13:36:23.129Z,20.10
2023-04-07T13:38:54.047Z,26.60
2023-04-07T13:41:23.132Z,26.40
2023-04-07T13:43:52.083Z,21.70
2023-04-07T13:46:28.430Z,18.80
2023-04-07T13:48:57.574Z,23.30
2023-04-07T13:51:28.287Z,21.90
2023-04-07T13:53:56.772Z,18.80
2023-04-07T13:56:25.190Z,20.30
2023-04-07T13:58:54.161Z,25.70
2023-04-07T14:01:23.017Z,17.90
2023-04-07T14:03:53.320Z,18.00
2023-04-07T14:06:23.033Z,20.00
2023-04-07T14:08:52.568Z,14.60
2023-04-07T14:11:24.610Z,33.40
2023-04-07T14:13:58.772Z,12.60
2023-04-07T14:16:28.883Z,23.50
2023-04-07T14:18:58.408Z,20.40
2023-04-07T14:21:28.034Z,27.80
2023-04-07T14:23:56.877Z,13.50
2023-04-07T14:26:25.138Z,21.80
2023-04-07T14:28:54.068Z,25.70
2023-04-07T14:31:22.537Z,27.40
2023-04-07T14:33:51.234Z,27.60
2023-04-07T14:36:19.891Z,12.80
2023-04-07T14:38:48.092Z,20.00
2023-04-07T14:41:16.766Z,16.10
2023-04-07T14:43:45.232Z,17.10
2023-04-07T14:46:15.147Z,23.00
2023-04-07T14:48:46.366Z,13.40
2023-04-07T14:51:14.718Z,15.30
2023-04-07T14:53:45.996Z,12.40
2023-04-07T14:56:14.564Z,15.40
2023-04-07T14:58:46.619Z,12.40
2023-04-07T15:01:15.447Z,10.60
2023-04-07T15:03:45.253Z,12.50
2023-04-07T15:06:14.102Z,15.60
2023-04-07T15:08:44.045Z,16.50
2023-04-07T15:11:13.362Z,31.50
2023-04-07T15:13:41.892Z,10.30
2023-04-07T15:16:12.714Z,12.70
2023-04-07T15:18:44.851Z,19.30
2023-04-07T15:21:15.018Z,12.90
2023-04-07T15:23:44.055Z,28.80
2023-04-07T15:26:12.619Z,19.20
2023-04-07T15:28:42.253Z,31.40
2023-04-07T15:31:10.826Z,36.50
2023-04-07T15:33:40.963Z,34.00
2023-04-07T15:36:09.542Z,22.60
2023-04-07T15:38:40.543Z,26.80
2023-04-07T15:41:08.906Z,16.60
2023-04-07T15:43:37.995Z,12.30
2023-04-07T15:46:06.364Z,25.00
2023-04-07T15:48:35.058Z,13.70
2023-04-07T15:51:03.538Z,29.20
2023-04-07T15:53:32.448Z,31.50
2023-04-07T15:56:00.855Z,28.10
2023-04-07T15:58:29.403Z,28.50
2023-04-07T16:00:58.060Z,23.40
2023-04-07T16:03:28.492Z,14.90
2023-04-07T16:05:57.174Z,18.50
2023-04-07T16:08:25.535Z,9.00
2023-04-07T16:10:54.664Z,12.40
2023-04-07T16:13:23.446Z,20.50
2023-04-07T16:15:59.306Z,16.50
2023-04-07T16:18:28.539Z,12.30
2023-04-07T16:20:56.818Z,10.60
2023-04-07T16:23:26.587Z,9.00
2023-04-07T16:25:55.625Z,14.30
2023-04-07T16:28:24.018Z,19.00
2023-04-07T16:30:57.128Z,22.80
2023-04-07T16:33:28.309Z,14.90
2023-04-07T16:35:56.583Z,14.10
2023-04-07T16:38:27.548Z,23.20
2023-04-07T16:41:04.020Z,14.60
2023-04-07T16:43:35.719Z,19.30
2023-04-07T16:46:06.061Z,22.90
2023-04-07T16:48:34.549Z,19.20
2023-04-07T16:51:03.324Z,19.30
2023-04-07T16:53:31.657Z,21.50
2023-04-07T16:56:04.540Z,35.30
2023-04-07T16:58:33.761Z,31.60
2023-04-07T17:01:02.409Z,29.80
2023-04-07T17:03:32.926Z,42.60
2023-04-07T17:06:05.696Z,54.30
2023-04-07T17:08:36.055Z,68.70
2023-04-07T17:11:08.342Z,70.00
2023-04-07T17:13:36.787Z,50.30
2023-04-07T17:16:14.522Z,50.00
2023-04-07T17:18:45.166Z,34.30
2023-04-07T17:21:15.640Z,36.40
2023-04-07T17:23:45.720Z,29.70
2023-04-07T17:26:14.015Z,29.50
2023-04-07T17:28:42.336Z,24.80
2023-04-07T17:31:13.724Z,19.70
2023-04-07T17:33:42.936Z,21.20
2023-04-07T17:36:11.263Z,19.00
2023-04-07T17:38:40.610Z,15.80
2023-04-07T17:41:09.144Z,17.40
2023-04-07T17:43:37.911Z,22.20
2023-04-07T17:46:06.338Z,19.70
2023-04-07T17:48:34.664Z,13.50
2023-04-07T17:51:04.209Z,20.00
2023-04-07T17:53:33.067Z,24.00
2023-04-07T17:56:01.769Z,36.80
2023-04-07T17:58:30.751Z,33.10
2023-04-07T18:00:59.488Z,37.50
2023-04-07T18:03:29.099Z,39.30
2023-04-07T18:05:57.570Z,50.50
2023-04-07T18:08:26.312Z,51.00
2023-04-07T18:10:58.916Z,42.10
2023-04-07T18:13:30.120Z,30.00
2023-04-07T18:15:59.879Z,33.20
2023-04-07T18:18:33.875Z,36.30
2023-04-07T18:21:02.349Z,44.10
2023-04-07T18:23:30.834Z,61.70
2023-04-07T18:26:02.924Z,123.40
2023-04-07T18:28:31.660Z,173.90
2023-04-07T18:31:10.059Z,180.50
2023-04-07T18:33:40.519Z,116.40
2023-04-07T18:36:08.874Z,94.80
2023-04-07T18:38:39.275Z,104.00
2023-04-07T18:41:08.167Z,95.90
2023-04-07T18:43:36.551Z,66.00
2023-04-07T18:46:05.206Z,77.40
2023-04-07T18:48:33.502Z,44.90
2023-04-07T18:51:01.781Z,40.00
2023-04-07T18:53:30.667Z,26.70
2023-04-07T18:55:59.403Z,23.10
2023-04-07T18:58:28.230Z,16.80
2023-04-07T19:00:57.225Z,19.40
2023-04-07T19:03:27.323Z,14.80
2023-04-07T19:05:55.817Z,15.20
2023-04-07T19:08:34.238Z,13.70
2023-04-07T19:11:04.560Z,16.30
2023-04-07T19:13:33.032Z,15.50
2023-04-07T19:16:02.034Z,16.30
2023-04-07T19:18:32.106Z,14.50
2023-04-07T19:21:01.640Z,17.60
2023-04-07T19:23:30.834Z,13.30
2023-04-07T19:26:01.157Z,13.00
2023-04-07T19:28:31.432Z,17.10
2023-04-07T19:30:59.687Z,25.60
2023-04-07T19:33:28.654Z,16.80
2023-04-07T19:35:57.130Z,15.70
2023-04-07T19:38:25.437Z,14.00
2023-04-07T19:40:54.131Z,18.60
2023-04-07T19:43:22.724Z,17.60
2023-04-07T19:45:51.202Z,20.10
2023-04-07T19:48:20.510Z,16.30
2023-04-07T19:50:51.500Z,18.30
2023-04-07T19:53:25.612Z,17.10
2023-04-07T19:55:54.361Z,26.90
2023-04-07T19:58:23.616Z,18.20
2023-04-07T20:00:54.322Z,13.60
2023-04-07T20:03:24.599Z,26.20
2023-04-07T20:05:53.331Z,20.40
2023-04-07T20:08:22.020Z,20.10
2023-04-07T20:10:52.792Z,19.30
2023-04-07T20:13:24.008Z,21.90
2023-04-07T20:15:53.620Z,16.40
2023-04-07T20:18:22.013Z,13.00
2023-04-07T20:21:01.280Z,12.90
2023-04-07T20:23:31.025Z,13.30
2023-04-07T20:26:00.101Z,13.90
2023-04-07T20:28:28.572Z,13.90
2023-04-07T20:30:57.201Z,19.20
2023-04-07T20:33:25.871Z,14.20
2023-04-07T20:35:54.989Z,14.10
2023-04-07T20:38:23.488Z,11.30
2023-04-07T20:40:54.514Z,17.90
2023-04-07T20:43:24.544Z,16.70
2023-04-07T20:45:53.495Z,15.10
2023-04-07T20:48:25.909Z,19.70
2023-04-07T20:50:54.298Z,37.60
2023-04-07T20:53:25.547Z,19.50
2023-04-07T20:55:53.970Z,22.50
2023-04-07T20:58:22.485Z,22.00
2023-04-07T21:00:58.234Z,21.70
2023-04-07T21:03:28.274Z,12.00
2023-04-07T21:05:57.620Z,10.00
2023-04-07T21:08:30.824Z,13.70
2023-04-07T21:10:59.535Z,15.30
2023-04-07T21:13:29.442Z,21.20
2023-04-07T21:15:59.555Z,16.10
2023-04-07T21:18:28.788Z,19.30
2023-04-07T21:21:00.010Z,26.20
2023-04-07T21:23:31.487Z,23.20
2023-04-07T21:26:01.883Z,21.80
2023-04-07T21:28:34.606Z,26.00
2023-04-07T21:31:04.579Z,15.10
2023-04-07T21:33:33.264Z,19.90
2023-04-07T21:36:03.898Z,18.10
2023-04-07T21:38:32.984Z,21.80
2023-04-07T21:41:01.729Z,15.00
2023-04-07T21:43:30.362Z,19.60
2023-04-07T21:45:59.291Z,18.30
2023-04-07T21:48:27.794Z,15.40
2023-04-07T21:50:56.121Z,23.90
2023-04-07T21:53:24.790Z,30.90
2023-04-07T21:55:53.724Z,23.30
2023-04-07T21:58:23.700Z,23.00
2023-04-07T22:00:53.738Z,24.60
2023-04-07T22:03:22.313Z,26.50
2023-04-07T22:05:51.875Z,24.50
2023-04-07T22:08:20.214Z,18.00
2023-04-07T22:10:48.633Z,26.00
2023-04-07T22:13:17.380Z,19.10
2023-04-07T22:15:46.550Z,19.20
2023-04-07T22:18:14.931Z,26.80
2023-04-07T22:20:43.924Z,25.20
2023-04-07T22:23:12.596Z,33.10
2023-04-07T22:25:44.780Z,27.20
2023-04-07T22:28:13.575Z,27.20
2023-04-07T22:30:41.965Z,23.30
2023-04-07T22:33:11.497Z,26.90
2023-04-07T22:35:39.872Z,18.30
2023-04-07T22:38:13.740Z,30.10
2023-04-07T22:40:42.146Z,27.90
2023-04-07T22:43:10.603Z,16.40
2023-04-07T22:45:39.894Z,24.50
2023-04-07T22:48:08.489Z,24.00
2023-04-07T22:50:43.820Z,24.30
2023-04-07T22:53:12.964Z,29.20
2023-04-07T22:55:41.510Z,23.90
2023-04-07T22:58:10.145Z,23.50
2023-04-07T23:00:39.624Z,35.60
2023-04-07T23:03:09.547Z,33.90
2023-04-07T23:05:38.588Z,26.50
2023-04-07T23:08:07.134Z,34.10
2023-04-07T23:10:35.685Z,33.70
2023-04-07T23:13:04.438Z,33.90
2023-04-07T23:15:36.083Z,31.90
2023-04-07T23:18:08.709Z,30.80
2023-04-07T23:20:37.348Z,27.10
2023-04-07T23:23:11.027Z,29.70
2023-04-07T23:25:39.393Z,28.80
2023-04-07T23:28:07.757Z,35.30
2023-04-07T23:30:38.545Z,33.40
2023-04-07T23:33:08.550Z,27.80
2023-04-07T23:35:36.977Z,28.20
2023-04-07T23:38:05.801Z,35.80
2023-04-07T23:40:34.183Z,45.80
2023-04-07T23:43:02.802Z,44.10
2023-04-07T23:45:31.196Z,27.80
2023-04-07T23:47:59.869Z,29.50
2023-04-07T23:50:28.577Z,31.60
2023-04-07T23:52:57.542Z,26.10
2023-04-07T23:55:27.302Z,29.80
2023-04-07T23:57:55.590Z,24.90
